createdAt,value
2019-03-31T00:03:30.375Z,36.55
2019-03-31T00:05:56.948Z,33.53
2019-03-31T00:08:23.516Z,32.20
2019-03-31T00:10:50.108Z,29.12
2019-03-31T00:13:16.578Z,26.45
2019-03-31T00:15:43.127Z,22.73
2019-03-31T00:18:09.895Z,27.00
2019-03-31T00:20:36.368Z,24.05
2019-03-31T00:23:03.350Z,25.70
2019-03-31T00:25:29.946Z,25.60
2019-03-31T00:27:56.412Z,25.80
2019-03-31T00:30:23.683Z,24.43
2019-03-31T00:32:50.763Z,27.17
2019-03-31T00:35:17.123Z,26.70
2019-03-31T00:37:43.602Z,29.82
2019-03-31T00:40:10.260Z,38.85
2019-03-31T00:42:37.096Z,44.18
2019-03-31T00:45:06.025Z,36.42
2019-03-31T00:47:32.480Z,24.45
2019-03-31T00:49:58.963Z,37.58
2019-03-31T00:52:25.432Z,30.02
2019-03-31T00:54:51.947Z,28.62
2019-03-31T00:57:18.495Z,25.27
2019-03-31T00:59:45.210Z,26.97
2019-03-31T01:02:16.478Z,28.92
2019-03-31T01:04:43.343Z,25.00
2019-03-31T01:07:09.994Z,25.72
2019-03-31T01:09:36.571Z,25.10
2019-03-31T01:12:03.867Z,20.92
2019-03-31T01:14:31.179Z,21.57
2019-03-31T01:16:58.637Z,21.62
2019-03-31T01:19:26.289Z,21.10
2019-03-31T01:21:53.056Z,18.20
2019-03-31T01:24:19.711Z,18.57
2019-03-31T01:26:46.493Z,19.32
2019-03-31T01:29:13.763Z,20.88
2019-03-31T01:31:50.298Z,18.48
2019-03-31T01:34:09.197Z,18.62
2019-03-31T01:36:35.686Z,18.82
2019-03-31T01:39:04.531Z,18.98
2019-03-31T01:41:31.503Z,20.30
2019-03-31T01:43:57.959Z,20.48
2019-03-31T01:46:26.050Z,21.35
2019-03-31T01:48:52.507Z,18.12
2019-03-31T01:51:19.075Z,19.98
2019-03-31T01:53:45.628Z,19.67
2019-03-31T01:56:12.550Z,18.05
2019-03-31T01:58:39.371Z,21.02
2019-03-31T02:01:07.959Z,18.65
2019-03-31T02:03:34.515Z,22.37
2019-03-31T02:06:02.362Z,20.08
2019-03-31T02:08:29.157Z,20.50
2019-03-31T02:10:56.102Z,22.85
2019-03-31T02:13:22.511Z,23.02
2019-03-31T02:15:48.871Z,21.82
2019-03-31T02:18:15.547Z,20.12
2019-03-31T02:20:42.261Z,18.20
2019-03-31T02:23:09.236Z,19.90
2019-03-31T02:25:35.826Z,20.32
2019-03-31T02:28:02.831Z,19.17
2019-03-31T02:30:29.777Z,19.15
2019-03-31T02:32:56.610Z,18.85
2019-03-31T02:35:23.230Z,19.20
2019-03-31T02:37:50.089Z,18.55
2019-03-31T02:40:16.932Z,19.98
2019-03-31T02:42:43.290Z,19.02
2019-03-31T02:45:10.400Z,21.15
2019-03-31T02:47:37.154Z,19.45
2019-03-31T02:50:05.224Z,20.32
2019-03-31T02:52:31.702Z,19.70
2019-03-31T02:54:58.507Z,19.25
2019-03-31T02:57:46.725Z,18.48
2019-03-31T03:00:13.468Z,25.48
2019-03-31T03:02:42.463Z,19.55
2019-03-31T03:05:19.473Z,19.80
2019-03-31T03:07:38.113Z,18.92
2019-03-31T03:10:04.861Z,19.87
2019-03-31T03:12:32.362Z,18.30
2019-03-31T03:15:01.910Z,19.23
2019-03-31T03:17:28.379Z,22.15
2019-03-31T03:19:55.415Z,19.87
2019-03-31T03:22:21.904Z,17.55
2019-03-31T03:24:48.343Z,20.70
2019-03-31T03:27:14.751Z,19.07
2019-03-31T03:29:41.545Z,17.45
2019-03-31T03:32:27.869Z,17.98
2019-03-31T03:34:54.328Z,18.25
2019-03-31T03:37:21.178Z,17.98
2019-03-31T03:39:47.566Z,18.48
2019-03-31T03:42:14.024Z,18.30
2019-03-31T03:44:40.495Z,16.30
2019-03-31T03:47:07.090Z,17.42
2019-03-31T03:49:33.901Z,20.32
2019-03-31T03:52:00.642Z,18.12
2019-03-31T03:54:27.085Z,18.80
2019-03-31T03:56:53.588Z,18.45
2019-03-31T03:59:20.050Z,19.27
2019-03-31T04:01:46.893Z,19.65
2019-03-31T04:04:13.452Z,18.87
2019-03-31T04:06:40.017Z,20.27
2019-03-31T04:09:07.008Z,18.30
2019-03-31T04:11:33.679Z,21.27
2019-03-31T04:14:00.243Z,20.12
2019-03-31T04:16:26.723Z,19.10
2019-03-31T04:18:53.295Z,20.02
2019-03-31T04:21:19.758Z,20.55
2019-03-31T04:23:46.848Z,19.30
2019-03-31T04:26:13.890Z,19.62
2019-03-31T04:28:40.509Z,19.23
2019-03-31T04:31:06.960Z,18.52
2019-03-31T04:33:49.375Z,19.02
2019-03-31T04:36:01.898Z,20.27
2019-03-31T04:38:28.446Z,21.45
2019-03-31T04:40:54.899Z,20.23
2019-03-31T04:43:21.488Z,21.30
2019-03-31T04:45:48.217Z,20.80
2019-03-31T04:48:14.966Z,22.35
2019-03-31T04:50:41.900Z,20.30
2019-03-31T04:53:08.648Z,20.48
2019-03-31T04:55:35.496Z,22.22
2019-03-31T04:58:01.976Z,20.02
2019-03-31T05:00:28.511Z,21.40
2019-03-31T05:03:14.777Z,20.55
2019-03-31T05:05:41.220Z,20.43
2019-03-31T05:08:08.032Z,23.57
2019-03-31T05:10:34.392Z,19.07
2019-03-31T05:13:01.313Z,19.40
2019-03-31T05:15:27.769Z,21.75
2019-03-31T05:17:54.243Z,22.55
2019-03-31T05:20:21.136Z,22.07
2019-03-31T05:22:47.973Z,21.23
2019-03-31T05:25:14.424Z,20.88
2019-03-31T05:27:41.252Z,22.55
2019-03-31T05:30:08.477Z,23.02
2019-03-31T05:32:34.956Z,21.70
2019-03-31T05:35:02.008Z,20.52
2019-03-31T05:37:28.823Z,24.40
2019-03-31T05:39:55.767Z,24.90
2019-03-31T05:42:22.245Z,24.63
2019-03-31T05:44:48.792Z,25.52
2019-03-31T05:47:15.275Z,22.73
2019-03-31T05:49:41.735Z,23.15
2019-03-31T05:52:08.080Z,21.48
2019-03-31T05:54:35.215Z,22.82
2019-03-31T05:57:01.835Z,21.90
2019-03-31T05:59:28.308Z,21.77
2019-03-31T06:01:54.849Z,21.95
2019-03-31T06:04:32.587Z,21.45
2019-03-31T06:06:50.113Z,21.12
2019-03-31T06:09:16.968Z,22.82
2019-03-31T06:11:43.520Z,22.52
2019-03-31T06:14:10.112Z,26.37
2019-03-31T06:16:36.547Z,23.55
2019-03-31T06:19:03.060Z,22.30
2019-03-31T06:21:29.430Z,21.45
2019-03-31T06:23:55.879Z,21.35
2019-03-31T06:26:22.348Z,21.12
2019-03-31T06:28:48.910Z,21.75
2019-03-31T06:31:15.684Z,20.12
2019-03-31T06:33:42.240Z,20.43
2019-03-31T06:36:08.964Z,21.48
2019-03-31T06:38:35.427Z,21.52
2019-03-31T06:41:01.917Z,21.68
2019-03-31T06:43:28.371Z,21.17
2019-03-31T06:45:54.752Z,21.37
2019-03-31T06:48:21.538Z,22.22
2019-03-31T06:50:48.116Z,22.42
2019-03-31T06:53:14.592Z,20.02
2019-03-31T06:55:41.067Z,18.67
2019-03-31T06:58:07.515Z,21.73
2019-03-31T07:00:33.892Z,18.67
2019-03-31T07:03:00.858Z,20.88
2019-03-31T07:05:27.348Z,21.50
2019-03-31T07:07:54.087Z,19.12
2019-03-31T07:10:20.547Z,19.30
2019-03-31T07:12:47.020Z,20.55
2019-03-31T07:15:14.567Z,20.68
2019-03-31T07:17:41.730Z,22.07
2019-03-31T07:20:10.749Z,20.77
2019-03-31T07:22:37.248Z,22.17
2019-03-31T07:25:06.907Z,24.53
2019-03-31T07:27:33.800Z,23.00
2019-03-31T07:30:00.427Z,23.03
2019-03-31T07:32:26.827Z,23.00
2019-03-31T07:34:53.608Z,24.03
2019-03-31T07:37:19.951Z,23.30
2019-03-31T07:39:46.699Z,27.57
2019-03-31T07:42:13.594Z,26.13
2019-03-31T07:44:40.693Z,28.60
2019-03-31T07:47:07.148Z,26.60
2019-03-31T07:49:34.055Z,26.57
2019-03-31T07:52:00.634Z,27.30
2019-03-31T07:54:27.121Z,31.17
2019-03-31T07:56:53.479Z,28.03
2019-03-31T07:59:19.999Z,29.90
2019-03-31T08:01:46.838Z,32.53
2019-03-31T08:04:13.320Z,33.73
2019-03-31T08:06:39.870Z,33.17
2019-03-31T08:09:06.443Z,33.87
2019-03-31T08:11:32.999Z,32.87
2019-03-31T08:13:59.501Z,35.93
2019-03-31T08:16:25.956Z,33.80
2019-03-31T08:18:52.323Z,33.53
2019-03-31T08:21:18.898Z,33.83
2019-03-31T08:23:45.760Z,32.80
2019-03-31T08:26:12.220Z,31.80
2019-03-31T08:28:38.796Z,33.80
2019-03-31T08:31:05.245Z,32.87
2019-03-31T08:33:31.611Z,32.73
2019-03-31T08:35:57.984Z,35.30
2019-03-31T08:38:24.723Z,33.13
2019-03-31T08:40:51.314Z,35.20
2019-03-31T08:43:17.801Z,33.53
2019-03-31T08:45:44.347Z,31.80
2019-03-31T08:48:10.848Z,37.13
2019-03-31T08:50:37.291Z,36.80
2019-03-31T08:53:03.743Z,39.80
2019-03-31T08:55:30.247Z,39.20
2019-03-31T08:57:56.688Z,39.47
2019-03-31T09:00:25.267Z,38.60
2019-03-31T09:02:51.819Z,41.20
2019-03-31T09:05:18.308Z,39.80
2019-03-31T09:07:44.777Z,39.60
2019-03-31T09:10:11.660Z,38.13
2019-03-31T09:12:38.336Z,37.27
2019-03-31T09:15:10.211Z,37.70
2019-03-31T09:17:36.963Z,36.77
2019-03-31T09:20:05.543Z,37.70
2019-03-31T09:22:32.090Z,36.40
2019-03-31T09:24:58.885Z,37.80
2019-03-31T09:27:25.332Z,35.00
2019-03-31T09:29:52.160Z,35.20
2019-03-31T09:32:18.601Z,39.30
2019-03-31T09:34:44.971Z,38.57
2019-03-31T09:37:11.511Z,39.10
2019-03-31T09:39:38.212Z,39.83
2019-03-31T09:42:04.743Z,40.00
2019-03-31T09:44:31.580Z,40.63
2019-03-31T09:46:58.026Z,38.57
2019-03-31T09:49:24.420Z,37.40
2019-03-31T09:51:50.971Z,36.80
2019-03-31T09:54:17.469Z,37.63
2019-03-31T09:56:43.934Z,35.80
2019-03-31T09:59:10.796Z,37.17
2019-03-31T10:01:37.257Z,36.00
2019-03-31T10:04:03.819Z,40.40
2019-03-31T10:06:31.161Z,40.57
2019-03-31T10:08:58.227Z,38.93
2019-03-31T10:11:24.778Z,35.87
2019-03-31T10:13:51.277Z,35.97
2019-03-31T10:16:17.712Z,37.73
2019-03-31T10:18:44.162Z,39.50
2019-03-31T10:21:10.762Z,38.63
2019-03-31T10:23:37.305Z,40.60
2019-03-31T10:26:03.872Z,37.37
2019-03-31T10:28:30.423Z,40.13
2019-03-31T10:30:56.912Z,38.87
2019-03-31T10:33:23.370Z,38.30
2019-03-31T10:35:50.043Z,37.37
2019-03-31T10:38:16.584Z,38.20
2019-03-31T10:40:43.543Z,37.40
2019-03-31T10:43:09.991Z,37.70
2019-03-31T10:45:36.464Z,38.30
2019-03-31T10:48:03.312Z,40.23
2019-03-31T10:50:30.015Z,37.03
2019-03-31T10:52:56.656Z,37.80
2019-03-31T10:55:23.138Z,38.33
2019-03-31T10:57:49.679Z,39.43
2019-03-31T11:00:19.865Z,38.37
2019-03-31T11:02:46.324Z,33.13
2019-03-31T11:05:12.992Z,36.50
2019-03-31T11:07:39.337Z,34.47
2019-03-31T11:10:06.811Z,35.37
2019-03-31T11:12:33.268Z,34.93
2019-03-31T11:15:00.092Z,34.20
2019-03-31T11:17:27.115Z,34.57
2019-03-31T11:19:53.584Z,33.70
2019-03-31T11:25:21.068Z,32.23
2019-03-31T11:27:39.370Z,30.47
2019-03-31T11:30:08.336Z,31.97
2019-03-31T11:32:34.698Z,30.27
2019-03-31T11:35:01.162Z,32.43
2019-03-31T11:37:27.975Z,28.77
2019-03-31T11:39:54.545Z,28.03
2019-03-31T11:42:21.094Z,29.80
2019-03-31T11:44:47.585Z,28.90
2019-03-31T11:47:14.021Z,29.03
2019-03-31T11:49:40.530Z,28.70
2019-03-31T11:52:07.108Z,28.87
2019-03-31T11:54:33.786Z,28.23
2019-03-31T11:57:00.470Z,29.57
2019-03-31T11:59:27.416Z,27.27
2019-03-31T12:01:53.882Z,26.90
2019-03-31T12:04:20.325Z,25.73
2019-03-31T12:06:46.800Z,25.00
2019-03-31T12:09:13.252Z,25.70
2019-03-31T12:11:39.809Z,25.50
2019-03-31T12:14:06.173Z,23.37
2019-03-31T12:16:32.937Z,21.57
2019-03-31T12:18:59.592Z,21.40
2019-03-31T12:21:26.056Z,20.97
2019-03-31T12:23:52.674Z,20.13
2019-03-31T12:26:19.279Z,20.30
2019-03-31T12:28:45.775Z,18.23
2019-03-31T12:31:12.148Z,18.97
2019-03-31T12:33:38.602Z,18.57
2019-03-31T12:36:05.075Z,19.00
2019-03-31T12:38:31.624Z,18.13
2019-03-31T12:40:58.417Z,16.90
2019-03-31T12:43:24.855Z,16.17
2019-03-31T12:45:51.323Z,15.47
2019-03-31T12:48:17.773Z,17.40
2019-03-31T12:50:44.469Z,15.90
2019-03-31T12:53:11.120Z,18.30
2019-03-31T12:55:37.583Z,15.10
2019-03-31T12:58:04.143Z,16.60
2019-03-31T13:00:30.724Z,18.30
2019-03-31T13:02:57.168Z,16.77
2019-03-31T13:05:23.988Z,17.33
2019-03-31T13:07:56.539Z,15.47
2019-03-31T13:10:18.820Z,16.80
2019-03-31T13:12:45.271Z,15.13
2019-03-31T13:15:11.843Z,15.50
2019-03-31T13:17:38.305Z,16.70
2019-03-31T13:20:05.583Z,15.70
2019-03-31T13:22:32.140Z,16.60
2019-03-31T13:25:02.139Z,17.10
2019-03-31T13:27:27.418Z,16.33
2019-03-31T13:29:53.869Z,13.77
2019-03-31T13:32:20.689Z,15.60
2019-03-31T13:34:47.253Z,16.27
2019-03-31T13:37:13.810Z,15.97
2019-03-31T13:39:40.344Z,16.30
2019-03-31T13:42:06.720Z,16.03
2019-03-31T13:44:33.271Z,15.00
2019-03-31T13:46:59.731Z,15.67
2019-03-31T13:49:26.209Z,16.63
2019-03-31T13:51:52.808Z,16.77
2019-03-31T13:54:19.348Z,15.17
2019-03-31T13:56:49.027Z,15.07
2019-03-31T13:59:14.643Z,14.57
2019-03-31T14:01:42.091Z,15.40
2019-03-31T14:04:08.941Z,14.60
2019-03-31T14:06:35.408Z,14.23
2019-03-31T14:09:05.761Z,14.07
2019-03-31T14:11:32.239Z,15.13
2019-03-31T14:13:58.801Z,14.40
2019-03-31T14:16:28.818Z,13.87
2019-03-31T14:18:53.732Z,12.90
2019-03-31T14:21:20.223Z,13.00
2019-03-31T14:23:46.676Z,14.07
2019-03-31T14:26:13.319Z,14.83
2019-03-31T14:28:39.909Z,14.03
2019-03-31T14:31:06.869Z,13.00
2019-03-31T14:33:33.336Z,14.93
2019-03-31T14:35:59.894Z,12.63
2019-03-31T14:38:39.583Z,12.67
2019-03-31T14:40:54.909Z,11.67
2019-03-31T14:43:21.582Z,12.63
2019-03-31T14:45:48.132Z,13.37
2019-03-31T14:48:14.604Z,12.40
2019-03-31T14:50:41.184Z,12.07
2019-03-31T14:53:07.759Z,12.80
2019-03-31T14:55:34.426Z,10.83
2019-03-31T14:58:01.197Z,13.20
2019-03-31T15:00:27.661Z,12.80
2019-03-31T15:02:54.235Z,11.30
2019-03-31T15:05:20.779Z,12.10
2019-03-31T15:07:47.247Z,11.70
2019-03-31T15:10:13.993Z,11.10
2019-03-31T15:12:40.465Z,12.27
2019-03-31T15:15:07.589Z,11.40
2019-03-31T15:17:33.945Z,11.03
2019-03-31T15:20:00.511Z,11.80
2019-03-31T15:22:26.872Z,13.00
2019-03-31T15:24:53.452Z,11.13
2019-03-31T15:27:19.904Z,11.83
2019-03-31T15:29:46.398Z,12.53
2019-03-31T15:32:12.833Z,12.70
2019-03-31T15:34:39.335Z,12.10
2019-03-31T15:37:05.778Z,10.83
2019-03-31T15:39:32.257Z,12.20
2019-03-31T15:41:58.828Z,10.60
2019-03-31T15:44:25.306Z,10.57
2019-03-31T15:46:51.747Z,11.10
2019-03-31T15:49:18.244Z,9.63
2019-03-31T15:51:44.697Z,10.63
2019-03-31T15:54:11.179Z,9.27
2019-03-31T15:56:37.724Z,9.93
2019-03-31T15:59:04.429Z,9.80
2019-03-31T16:01:31.159Z,10.17
2019-03-31T16:03:57.633Z,9.20
2019-03-31T16:06:24.394Z,8.80
2019-03-31T16:08:50.867Z,10.07
2019-03-31T16:11:17.215Z,9.30
2019-03-31T16:13:43.673Z,9.27
2019-03-31T16:16:10.352Z,9.40
2019-03-31T16:18:36.813Z,7.73
2019-03-31T16:21:03.379Z,8.23
2019-03-31T16:23:29.984Z,8.87
2019-03-31T16:25:58.326Z,8.60
2019-03-31T16:28:24.775Z,7.60
2019-03-31T16:30:51.540Z,8.70
2019-03-31T16:33:18.002Z,7.57
2019-03-31T16:35:44.478Z,8.33
2019-03-31T16:38:10.944Z,8.93
2019-03-31T16:40:37.512Z,7.47
2019-03-31T16:43:03.963Z,9.17
2019-03-31T16:45:30.463Z,7.60
2019-03-31T16:47:56.984Z,8.37
2019-03-31T16:50:23.459Z,8.27
2019-03-31T16:52:52.604Z,8.70
2019-03-31T16:55:18.400Z,7.70
2019-03-31T16:57:44.868Z,7.40
2019-03-31T17:00:12.016Z,7.37
2019-03-31T17:02:38.493Z,8.13
2019-03-31T17:05:05.441Z,7.93
2019-03-31T17:07:32.036Z,7.70
2019-03-31T17:09:58.704Z,6.40
2019-03-31T17:12:25.175Z,7.33
2019-03-31T17:14:51.632Z,7.80
2019-03-31T17:17:18.119Z,7.43
2019-03-31T17:19:44.577Z,7.83
2019-03-31T17:22:11.043Z,8.40
2019-03-31T17:24:37.508Z,8.47
2019-03-31T17:27:03.975Z,8.90
2019-03-31T17:29:30.438Z,8.57
2019-03-31T17:31:57.231Z,8.47
2019-03-31T17:34:24.235Z,8.30
2019-03-31T17:36:50.887Z,8.10
2019-03-31T17:39:17.354Z,9.33
2019-03-31T17:41:44.144Z,7.90
2019-03-31T17:44:10.728Z,8.40
2019-03-31T17:46:37.296Z,8.93
2019-03-31T17:49:03.902Z,8.60
2019-03-31T17:51:30.355Z,7.95
2019-03-31T17:53:56.925Z,8.93
2019-03-31T17:56:23.593Z,8.55
2019-03-31T17:58:50.167Z,8.73
2019-03-31T18:01:16.826Z,7.65
2019-03-31T18:03:43.400Z,7.33
2019-03-31T18:06:09.967Z,9.33
2019-03-31T18:08:36.451Z,8.93
2019-03-31T18:11:03.003Z,9.63
2019-03-31T18:13:29.829Z,7.72
2019-03-31T18:15:56.672Z,8.05
2019-03-31T18:18:23.156Z,7.78
2019-03-31T18:20:49.628Z,7.28
2019-03-31T18:23:16.175Z,8.50
2019-03-31T18:25:42.559Z,7.60
2019-03-31T18:28:09.124Z,7.67
2019-03-31T18:30:35.998Z,8.90
2019-03-31T18:33:02.553Z,8.70
2019-03-31T18:35:29.143Z,7.78
2019-03-31T18:37:55.687Z,7.87
2019-03-31T18:40:34.362Z,8.40
2019-03-31T18:42:50.330Z,9.18
2019-03-31T18:45:17.164Z,7.67
2019-03-31T18:47:43.717Z,9.05
2019-03-31T18:50:10.528Z,7.80
2019-03-31T18:52:36.973Z,7.45
2019-03-31T18:55:06.476Z,7.17
2019-03-31T18:57:35.047Z,6.00
2019-03-31T19:00:07.336Z,7.67
2019-03-31T19:02:35.880Z,6.65
2019-03-31T19:05:09.132Z,7.08
2019-03-31T19:07:37.625Z,6.92
2019-03-31T19:10:24.475Z,6.10
2019-03-31T19:12:58.708Z,7.97
2019-03-31T19:15:27.198Z,7.28
2019-03-31T19:18:07.712Z,6.53
2019-03-31T19:20:48.407Z,7.33
2019-03-31T19:23:16.856Z,7.25
2019-03-31T19:26:02.086Z,6.45
2019-03-31T19:28:33.464Z,6.55
2019-03-31T19:31:07.178Z,6.70
2019-03-31T19:36:32.449Z,6.05
2019-03-31T19:39:00.805Z,7.70
2019-03-31T19:41:38.229Z,7.40
2019-03-31T19:44:09.991Z,5.37
2019-03-31T19:46:44.516Z,6.50
2019-03-31T19:49:12.899Z,6.92
2019-03-31T19:51:50.363Z,6.40
2019-03-31T19:54:21.711Z,5.87
2019-03-31T19:57:07.007Z,6.35
2019-03-31T19:59:38.457Z,6.20
2019-03-31T20:02:07.021Z,5.50
2019-03-31T20:04:35.414Z,5.90
2019-03-31T20:07:09.763Z,6.47
2019-03-31T20:09:44.135Z,5.65
2019-03-31T20:12:29.231Z,6.47
2019-03-31T20:15:06.669Z,5.65
2019-03-31T20:17:35.126Z,5.42
2019-03-31T20:20:22.936Z,5.20
2019-03-31T20:22:57.494Z,7.20
2019-03-31T20:25:32.113Z,5.67
2019-03-31T20:28:03.576Z,5.47
2019-03-31T20:30:37.741Z,5.30
2019-03-31T20:33:15.119Z,6.53
2019-03-31T20:35:46.700Z,5.30
2019-03-31T20:38:15.079Z,5.72
2019-03-31T20:40:49.705Z,5.75
2019-03-31T20:43:27.393Z,5.05
2019-03-31T20:45:53.991Z,5.10
2019-03-31T20:48:20.444Z,5.80
2019-03-31T20:50:46.823Z,5.12
2019-03-31T20:53:13.408Z,5.92
2019-03-31T20:55:39.878Z,5.60
2019-03-31T20:58:06.430Z,6.00
2019-03-31T21:00:32.980Z,6.03
2019-03-31T21:02:59.457Z,4.75
2019-03-31T21:05:26.326Z,6.05
2019-03-31T21:07:52.802Z,5.22
2019-03-31T21:10:19.705Z,5.35
2019-03-31T21:12:46.187Z,6.53
2019-03-31T21:15:13.492Z,4.97
2019-03-31T21:17:40.134Z,4.92
2019-03-31T21:20:07.208Z,5.17
2019-03-31T21:22:34.124Z,5.42
2019-03-31T21:25:00.602Z,5.17
2019-03-31T21:27:27.053Z,4.50
2019-03-31T21:29:53.632Z,4.92
2019-03-31T21:32:20.095Z,4.65
2019-03-31T21:34:46.484Z,3.72
2019-03-31T21:37:12.935Z,4.10
2019-03-31T21:39:39.406Z,4.37
2019-03-31T21:42:05.950Z,5.55
2019-03-31T21:44:32.407Z,4.40
2019-03-31T21:46:59.000Z,4.53
2019-03-31T21:49:25.378Z,4.50
2019-03-31T21:51:52.145Z,4.90
2019-03-31T21:54:18.495Z,4.55
2019-03-31T21:56:45.317Z,4.62
2019-03-31T21:59:11.763Z,3.10
2019-03-31T22:01:38.240Z,4.12
2019-03-31T22:04:04.890Z,4.35
2019-03-31T22:06:31.668Z,3.85
2019-03-31T22:08:58.112Z,3.42
2019-03-31T22:11:24.598Z,3.47
2019-03-31T22:13:51.371Z,4.00
2019-03-31T22:16:17.863Z,4.40
2019-03-31T22:18:44.312Z,4.92
2019-03-31T22:21:10.788Z,4.85
2019-03-31T22:23:37.332Z,3.30
2019-03-31T22:26:03.918Z,4.75
2019-03-31T22:28:30.510Z,4.25
2019-03-31T22:30:56.945Z,3.67
2019-03-31T22:33:23.599Z,3.92
2019-03-31T22:36:09.079Z,3.50
2019-03-31T22:38:35.435Z,4.55
2019-03-31T22:41:01.911Z,3.20
2019-03-31T22:43:28.861Z,3.85
2019-03-31T22:45:55.427Z,2.33
2019-03-31T22:48:22.132Z,3.60
2019-03-31T22:50:48.701Z,3.42
2019-03-31T22:53:15.267Z,2.98
2019-03-31T22:55:41.739Z,3.90
2019-03-31T22:58:08.088Z,3.10
2019-03-31T23:00:34.568Z,3.35
2019-03-31T23:03:01.033Z,3.70
2019-03-31T23:05:27.477Z,3.10
2019-03-31T23:07:54.082Z,2.80
2019-03-31T23:10:20.519Z,3.47
2019-03-31T23:12:46.988Z,2.98
2019-03-31T23:15:13.538Z,2.30
2019-03-31T23:17:39.900Z,3.02
2019-03-31T23:20:06.893Z,3.40
2019-03-31T23:22:33.737Z,2.60
2019-03-31T23:25:00.298Z,2.83
2019-03-31T23:27:26.776Z,3.45
2019-03-31T23:29:53.332Z,3.47
2019-03-31T23:32:19.875Z,3.27
2019-03-31T23:34:46.349Z,2.65
2019-03-31T23:37:13.158Z,2.30
2019-03-31T23:39:39.632Z,3.27
2019-03-31T23:42:06.079Z,2.70
2019-03-31T23:44:32.552Z,3.67
2019-03-31T23:46:59.000Z,2.30
2019-03-31T23:49:25.596Z,3.17
2019-03-31T23:51:52.151Z,2.85
2019-03-31T23:54:18.621Z,3.05
2019-03-31T23:56:45.073Z,2.58
2019-03-31T23:59:11.647Z,2.15
